Time;durP1;ratioP1;P1;durP2;ratioP2;P2;SDS_P1;SDS_P2;PMS_P1;PMS_P2;Temp;Humidity;BMP_temperature;BMP_pressure;BME280_temperature;BME280_humidity;BME280_pressure;Samples;Min_cycle;Max_cycle;Signal;HPM_P1;HPM_P2
2022/01/07 00:01:34;;;;;;;;;;;3.80;99.90;;;;;;5085519;28;20381;-69
2022/01/07 00:04:00;;;;;;;11.52;4.07;;;3.80;99.90;;;;;;5091504;28;19920;-69
2022/01/07 00:06:26;;;;;;;17.75;6.13;;;4.00;99.90;;;;;;5091702;28;20358;-69
2022/01/07 00:08:52;;;;;;;11.10;4.55;;;3.70;99.90;;;;;;5089279;28;20043;-69
2022/01/07 00:11:18;;;;;;;11.13;5.57;;;3.80;99.90;;;;;;5086832;28;20410;-70
2022/01/07 00:13:43;;;;;;;15.50;5.50;;;3.60;99.90;;;;;;5080611;28;20044;-69
2022/01/07 00:16:11;;;;;;;19.83;5.57;;;3.70;99.90;;;;;;5088538;28;20047;-69
2022/01/07 00:18:39;;;;;;;15.18;5.70;;;4.00;99.90;;;;;;5088210;28;20173;-69
2022/01/07 00:21:06;;;;;;;15.35;4.75;;;3.60;99.90;;;;;;5090552;28;20041;-69
2022/01/07 00:23:31;;;;;;;17.55;5.65;;;4.00;99.90;;;;;;5073486;28;20036;-69
2022/01/07 00:25:57;;;;;;;14.38;4.78;;;4.10;99.90;;;;;;5088219;28;20038;-70
2022/01/07 00:28:23;;;;;;;8.68;3.83;;;3.70;99.90;;;;;;5086020;28;20088;-70
2022/01/07 00:30:48;;;;;;;13.30;5.32;;;3.90;99.90;;;;;;5056196;28;20042;-70
2022/01/07 00:33:15;;;;;;;11.73;4.75;;;3.70;99.90;;;;;;5055484;28;20076;-70
2022/01/07 00:35:40;;;;;;;14.48;5.70;;;3.70;99.90;;;;;;5087628;28;20487;-70
2022/01/07 00:38:06;;;;;;;14.13;4.85;;;4.10;99.90;;;;;;5085134;28;20057;-70
2022/01/07 00:40:32;;;;;;;14.32;5.13;;;4.40;99.90;;;;;;5085267;28;20114;-70
2022/01/07 00:42:58;;;;;;;11.43;4.57;;;3.70;99.90;;;;;;5090514;28;20150;-70
2022/01/07 00:45:25;;;;;;;10.77;4.53;;;3.90;99.90;;;;;;5088077;28;20078;-69
2022/01/07 00:47:51;;;;;;;11.05;5.25;;;3.80;99.90;;;;;;5067935;28;20047;-69
2022/01/07 00:50:19;;;;;;;8.80;3.75;;;3.90;99.90;;;;;;5090003;28;20035;-69
2022/01/07 00:52:46;;;;;;;12.95;5.40;;;3.80;99.90;;;;;;5086334;28;20044;-69
2022/01/07 00:55:12;;;;;;;13.25;5.80;;;3.60;99.90;;;;;;5070701;28;20410;-69
2022/01/07 00:57:38;;;;;;;18.30;4.95;;;3.50;99.90;;;;;;5090274;28;20035;-69
2022/01/07 01:00:08;;;;;;;11.00;4.05;;;4.20;99.90;;;;;;5090102;28;20093;-69
2022/01/07 01:02:34;;;;;;;4.90;2.58;;;3.50;99.90;;;;;;5086687;28;20024;-69
2022/01/07 01:05:00;;;;;;;8.73;4.75;;;3.60;99.90;;;;;;5072074;28;20057;-69
2022/01/07 01:07:27;;;;;;;10.52;4.13;;;3.50;99.90;;;;;;5090135;28;20044;-69
2022/01/07 01:09:52;;;;;;;14.88;6.18;;;3.40;99.90;;;;;;5090040;28;20117;-69
2022/01/07 01:12:18;;;;;;;12.57;5.47;;;3.30;99.90;;;;;;5072415;28;20039;-69
2022/01/07 01:14:44;;;;;;;15.93;5.82;;;3.10;99.90;;;;;;5089455;28;20040;-69
2022/01/07 01:17:10;;;;;;;17.38;5.50;;;3.10;99.90;;;;;;5090562;28;20067;-69
2022/01/07 01:19:37;;;;;;;11.80;4.50;;;3.50;99.90;;;;;;5090054;28;20032;-69
2022/01/07 01:22:03;;;;;;;12.93;4.82;;;2.90;99.90;;;;;;5089786;28;20171;-69
2022/01/07 01:24:29;;;;;;;17.13;6.53;;;3.00;99.90;;;;;;5088508;28;20031;-69
2022/01/07 01:26:55;;;;;;;10.85;4.32;;;3.00;99.90;;;;;;5089863;28;20051;-69
2022/01/07 01:29:22;;;;;;;12.80;5.90;;;2.90;99.90;;;;;;5069090;28;20407;-69
2022/01/07 01:31:49;;;;;;;13.45;6.93;;;3.10;99.90;;;;;;5086491;28;20107;-69
2022/01/07 01:34:15;;;;;;;14.25;5.68;;;3.40;99.90;;;;;;5085355;28;20364;-69
2022/01/07 01:36:41;;;;;;;16.08;6.43;;;3.10;99.90;;;;;;5085900;28;20040;-69
2022/01/07 01:39:07;;;;;;;12.40;5.07;;;3.00;99.90;;;;;;5068716;28;20135;-69
2022/01/07 01:41:33;;;;;;;14.60;5.53;;;2.80;99.90;;;;;;5087883;28;20100;-69
2022/01/07 01:43:59;;;;;;;11.45;5.30;;;3.00;99.90;;;;;;5085604;28;20075;-69
2022/01/07 01:46:25;;;;;;;11.35;5.82;;;2.90;99.90;;;;;;5087653;28;20075;-69
2022/01/07 01:48:51;;;;;;;14.13;6.05;;;2.90;99.90;;;;;;5089667;28;20424;-69
2022/01/07 01:51:17;;;;;;;15.93;6.18;;;3.40;99.90;;;;;;5081160;28;20053;-69
2022/01/07 01:53:43;;;;;;;12.05;6.10;;;2.70;99.90;;;;;;5086391;28;20035;-69
2022/01/07 01:56:09;;;;;;;14.70;6.45;;;3.20;99.90;;;;;;5092770;28;20497;-69
2022/01/07 01:58:34;;;;;;;18.40;5.47;;;3.20;99.90;;;;;;5071214;28;20059;-69
2022/01/07 02:01:01;;;;;;;16.13;6.97;;;3.00;99.90;;;;;;5088139;28;20039;-69
2022/01/07 02:03:26;;;;;;;17.25;6.90;;;2.60;99.90;;;;;;5085541;28;20039;-69
2022/01/07 02:05:52;;;;;;;16.63;6.72;;;2.70;99.90;;;;;;5088702;28;20036;-69
2022/01/07 02:08:18;;;;;;;8.63;4.38;;;2.80;99.90;;;;;;5060451;28;20040;-69
2022/01/07 02:10:43;;;;;;;6.78;3.85;;;2.80;99.90;;;;;;5089006;28;20043;-69
2022/01/07 02:13:09;;;;;;;10.25;6.15;;;2.70;99.90;;;;;;5089183;28;20039;-69
2022/01/07 02:15:37;;;;;;;19.60;6.85;;;2.70;99.90;;;;;;5071535;28;20395;-69
2022/01/07 02:18:03;;;;;;;16.75;7.35;;;2.80;99.90;;;;;;5063990;28;20439;-69
2022/01/07 02:20:29;;;;;;;11.65;5.03;;;2.60;99.90;;;;;;5089962;28;20058;-69
2022/01/07 02:22:56;;;;;;;16.98;7.07;;;2.60;99.90;;;;;;5086293;28;20394;-69
2022/01/07 02:25:23;;;;;;;17.30;7.63;;;2.70;99.90;;;;;;5082281;28;20040;-69
2022/01/07 02:27:50;;;;;;;15.98;7.07;;;2.80;99.90;;;;;;5081001;28;20040;-69
2022/01/07 02:30:22;;;;;;;12.23;6.82;;;2.50;99.90;;;;;;5072810;28;20039;-69
2022/01/07 02:32:48;;;;;;;12.00;7.07;;;2.80;99.90;;;;;;5089924;28;20035;-69
2022/01/07 02:35:16;;;;;;;13.75;5.80;;;2.70;99.90;;;;;;5073540;28;20573;-69
2022/01/07 02:37:42;;;;;;;15.82;7.40;;;2.60;99.90;;;;;;5084587;28;20047;-69
2022/01/07 02:40:10;;;;;;;17.52;8.20;;;2.60;99.90;;;;;;5092205;28;20395;-69
2022/01/07 02:42:36;;;;;;;14.82;7.22;;;2.60;99.90;;;;;;5094827;28;20379;-69
2022/01/07 02:45:08;;;;;;;11.15;7.55;;;2.60;99.90;;;;;;5097054;28;20043;-69
2022/01/07 02:47:44;;;;;;;15.18;7.38;;;2.50;99.90;;;;;;5093467;28;20080;-69
2022/01/07 02:50:10;;;;;;;19.42;8.07;;;2.50;99.90;;;;;;5091274;28;20038;-69
2022/01/07 02:52:36;;;;;;;14.05;7.22;;;2.50;99.90;;;;;;5075578;28;22627;-69
2022/01/07 02:55:02;;;;;;;12.95;6.78;;;2.60;99.90;;;;;;5090717;28;20198;-69
2022/01/07 02:57:27;;;;;;;20.80;8.75;;;3.10;99.90;;;;;;5094661;28;20036;-69
2022/01/07 02:59:53;;;;;;;12.60;7.40;;;2.80;99.90;;;;;;5075027;28;20411;-69
2022/01/07 03:02:18;;;;;;;15.60;7.82;;;2.40;99.90;;;;;;5060957;28;20065;-69
2022/01/07 03:04:44;;;;;;;11.43;5.15;;;2.50;99.90;;;;;;5089516;28;20478;-69
2022/01/07 03:07:10;;;;;;;8.77;5.70;;;2.50;99.90;;;;;;5066729;28;20035;-69
2022/01/07 03:09:36;;;;;;;14.10;8.55;;;2.70;99.90;;;;;;5092398;28;20114;-69
2022/01/07 03:12:01;;;;;;;17.48;8.98;;;2.40;99.90;;;;;;5079358;28;20077;-69
2022/01/07 03:14:27;;;;;;;11.05;6.22;;;2.40;99.90;;;;;;5091014;28;20040;-69
2022/01/07 03:16:53;;;;;;;16.77;9.95;;;2.50;99.90;;;;;;5090726;28;20425;-69
2022/01/07 03:19:19;;;;;;;10.32;6.30;;;2.50;99.90;;;;;;5087846;28;20042;-69
2022/01/07 03:21:44;;;;;;;10.45;7.32;;;2.40;99.90;;;;;;5073379;28;20419;-69
2022/01/07 03:24:10;;;;;;;15.27;9.48;;;2.50;99.90;;;;;;5074604;28;20042;-69
2022/01/07 03:26:36;;;;;;;15.20;8.60;;;2.60;99.90;;;;;;5077200;28;20540;-69
2022/01/07 03:29:01;;;;;;;20.80;9.27;;;2.60;99.90;;;;;;5085157;28;20050;-69
2022/01/07 03:31:27;;;;;;;11.05;5.60;;;2.70;99.90;;;;;;5085287;28;20051;-69
2022/01/07 03:33:53;;;;;;;15.85;8.90;;;2.70;99.90;;;;;;5090874;28;20083;-69
2022/01/07 03:36:19;;;;;;;13.70;7.93;;;2.60;99.90;;;;;;5089789;28;20046;-69
2022/01/07 03:38:44;;;;;;;15.02;8.20;;;2.70;99.90;;;;;;5086040;28;20035;-69
2022/01/07 03:41:10;;;;;;;18.88;8.23;;;2.60;99.90;;;;;;5090734;28;20032;-69
2022/01/07 03:43:35;;;;;;;15.82;7.32;;;2.70;99.90;;;;;;5086455;28;20034;-69
2022/01/07 03:46:02;;;;;;;13.75;9.70;;;2.90;99.90;;;;;;5088871;28;20101;-69
2022/01/07 03:48:28;;;;;;;13.40;8.10;;;2.40;99.90;;;;;;5086275;28;20594;-69
2022/01/07 03:50:54;;;;;;;12.23;7.50;;;2.70;99.90;;;;;;5090981;28;20036;-69
2022/01/07 03:53:22;;;;;;;14.52;7.30;;;2.90;99.90;;;;;;5091507;28;20071;-69
2022/01/07 03:55:48;;;;;;;7.45;3.55;;;2.90;99.90;;;;;;5090889;28;20118;-69
2022/01/07 03:58:13;;;;;;;11.27;6.97;;;2.60;99.90;;;;;;5075558;28;20456;-69
2022/01/07 04:00:41;;;;;;;15.05;8.00;;;2.90;99.90;;;;;;5087980;28;20035;-69
2022/01/07 04:03:16;;;;;;;12.80;8.27;;;2.50;99.90;;;;;;5090052;28;20061;-69
2022/01/07 04:05:42;;;;;;;12.48;8.50;;;2.50;99.90;;;;;;5088969;28;20035;-69
2022/01/07 04:08:08;;;;;;;13.07;7.95;;;2.60;99.90;;;;;;5083554;28;20100;-69
2022/01/07 04:10:35;;;;;;;16.08;9.45;;;2.50;99.90;;;;;;5090469;28;20035;-69
2022/01/07 04:13:01;;;;;;;11.98;7.68;;;2.60;99.90;;;;;;5086014;28;20051;-69
2022/01/07 04:15:27;;;;;;;16.90;8.52;;;2.60;99.90;;;;;;5090049;28;20043;-69
2022/01/07 04:17:54;;;;;;;14.88;9.32;;;2.50;99.90;;;;;;5091879;28;20040;-69
2022/01/07 04:20:23;;;;;;;14.80;8.63;;;2.70;99.90;;;;;;5093883;28;20118;-69
2022/01/07 04:22:49;;;;;;;12.88;7.38;;;2.60;99.90;;;;;;5089478;28;20050;-69
2022/01/07 04:25:19;;;;;;;11.48;7.15;;;2.60;99.90;;;;;;5090574;28;20040;-69
2022/01/07 04:27:46;;;;;;;15.48;8.35;;;2.90;99.90;;;;;;5073994;28;20118;-69
2022/01/07 04:30:12;;;;;;;12.82;8.05;;;2.70;99.90;;;;;;5078211;28;20036;-69
2022/01/07 04:32:38;;;;;;;15.63;8.05;;;2.80;99.90;;;;;;5089422;28;20043;-69
2022/01/07 04:35:05;;;;;;;14.25;10.07;;;2.80;99.90;;;;;;5088366;28;20051;-69
2022/01/07 04:37:31;;;;;;;12.73;8.55;;;2.80;99.90;;;;;;5090200;28;20039;-69
2022/01/07 04:39:57;;;;;;;15.55;10.13;;;2.50;99.90;;;;;;5090083;28;20092;-69
2022/01/07 04:42:22;;;;;;;16.90;9.40;;;3.40;99.90;;;;;;5091142;28;20040;-69
2022/01/07 04:44:48;;;;;;;11.10;7.45;;;2.70;99.90;;;;;;5070265;28;20071;-69
2022/01/07 04:47:14;;;;;;;13.55;8.45;;;2.90;99.90;;;;;;5085728;28;20761;-69
2022/01/07 04:49:39;;;;;;;15.80;8.45;;;2.80;99.90;;;;;;5091505;28;20380;-69
2022/01/07 04:52:06;;;;;;;14.82;8.65;;;2.80;99.90;;;;;;5083276;28;20035;-69
2022/01/07 04:54:33;;;;;;;15.75;9.10;;;2.70;99.90;;;;;;5079521;28;20032;-69
2022/01/07 04:56:59;;;;;;;13.80;8.80;;;2.80;99.90;;;;;;5077782;28;20048;-69
2022/01/07 04:59:25;;;;;;;16.67;8.88;;;3.00;99.90;;;;;;5089282;28;20045;-69
2022/01/07 05:01:51;;;;;;;14.23;8.80;;;3.20;99.90;;;;;;5086664;28;20043;-69
2022/01/07 05:04:17;;;;;;;15.07;8.45;;;2.90;99.90;;;;;;5083978;28;20044;-69
2022/01/07 05:06:47;;;;;;;12.68;7.03;;;2.70;99.90;;;;;;5074591;28;20038;-69
2022/01/07 05:09:16;;;;;;;13.20;8.48;;;3.00;99.90;;;;;;5084134;28;20114;-69
2022/01/07 05:11:47;;;;;;;17.10;8.63;;;3.00;99.90;;;;;;5086528;28;20122;-69
2022/01/07 05:14:13;;;;;;;18.33;8.40;;;2.70;99.90;;;;;;5065104;28;20032;-69
2022/01/07 05:16:39;;;;;;;13.65;7.20;;;2.90;99.90;;;;;;5086244;28;20286;-69
2022/01/07 05:19:05;;;;;;;12.05;7.18;;;2.90;99.90;;;;;;5089409;28;20180;-69
2022/01/07 05:21:31;;;;;;;12.50;7.68;;;3.10;99.90;;;;;;5069506;28;20130;-69
2022/01/07 05:23:57;;;;;;;10.88;7.55;;;3.20;99.90;;;;;;5073106;28;20034;-69
2022/01/07 05:26:23;;;;;;;11.98;7.82;;;2.90;99.90;;;;;;5088417;28;20063;-69
2022/01/07 05:28:50;;;;;;;11.68;7.47;;;2.90;99.90;;;;;;5091879;28;20506;-69
2022/01/07 05:31:22;;;;;;;10.77;7.85;;;3.30;99.90;;;;;;5079897;28;20081;-69
2022/01/07 05:33:48;;;;;;;14.60;7.22;;;2.90;99.90;;;;;;5080833;28;20116;-69
2022/01/07 05:36:14;;;;;;;12.00;7.80;;;3.00;99.90;;;;;;5091186;28;20047;-69
2022/01/07 05:38:40;;;;;;;10.95;7.32;;;3.00;99.90;;;;;;5071789;28;20045;-69
2022/01/07 05:41:05;;;;;;;14.30;7.93;;;2.70;99.90;;;;;;5070312;28;20556;-69
2022/01/07 05:43:31;;;;;;;9.82;5.40;;;2.90;99.90;;;;;;5085043;28;20128;-69
2022/01/07 05:45:57;;;;;;;7.78;6.13;;;;;;;;;;5080809;28;20051;-69
2022/01/07 05:48:23;;;;;;;12.85;7.60;;;;;;;;;;5070432;28;20047;-69
2022/01/07 05:50:50;;;;;;;16.92;7.97;;;;;;;;;;5088638;28;20205;-69
2022/01/07 05:53:16;;;;;;;10.20;5.68;;;;;;;;;;5086394;28;20047;-69
2022/01/07 05:55:41;;;;;;;14.07;7.28;;;2.80;99.90;;;;;;5087527;28;20043;-69
2022/01/07 05:58:07;;;;;;;10.32;7.10;;;3.20;99.90;;;;;;5086243;28;20047;-69
2022/01/07 06:00:33;;;;;;;10.27;6.90;;;2.90;99.90;;;;;;5089768;28;20071;-69
2022/01/07 06:02:59;;;;;;;10.85;6.72;;;2.90;99.90;;;;;;5088919;28;20109;-69
2022/01/07 06:05:25;;;;;;;11.05;7.43;;;3.00;99.90;;;;;;5086712;28;20067;-69
2022/01/07 06:07:51;;;;;;;10.02;6.70;;;;;;;;;;5087248;28;20042;-69
2022/01/07 06:10:17;;;;;;;9.75;6.75;;;;;;;;;;5067955;28;20364;-69
2022/01/07 06:12:43;;;;;;;13.82;7.60;;;;;;;;;;5090092;28;20641;-69
2022/01/07 06:15:09;;;;;;;11.25;7.28;;;;;;;;;;5094156;28;20035;-69
2022/01/07 06:17:36;;;;;;;12.43;6.15;;;3.20;99.90;;;;;;5093395;28;20044;-69
2022/01/07 06:20:02;;;;;;;9.93;6.22;;;2.90;99.90;;;;;;5085402;28;20412;-69
2022/01/07 06:22:28;;;;;;;11.55;7.03;;;2.90;99.90;;;;;;5086373;28;20043;-69
2022/01/07 06:24:53;;;;;;;10.07;7.13;;;3.10;99.90;;;;;;5088216;28;20036;-69
2022/01/07 06:27:19;;;;;;;9.38;7.35;;;2.90;99.90;;;;;;5088539;28;20028;-69
2022/01/07 06:29:46;;;;;;;6.15;3.83;;;;;;;;;;5090073;28;20091;-69
2022/01/07 06:32:12;;;;;;;9.40;6.47;;;;;;;;;;5088191;28;20040;-69
2022/01/07 06:34:38;;;;;;;12.70;8.15;;;;;;;;;;5075290;27;20097;-69
2022/01/07 06:37:04;;;;;;;9.23;6.68;;;;;;;;;;5097006;28;20384;-69
2022/01/07 06:39:32;;;;;;;9.73;6.90;;;;;;;;;;5087836;28;20079;-69
2022/01/07 06:41:59;;;;;;;8.55;6.43;;;;;;;;;;5087097;28;20039;-69
2022/01/07 06:44:26;;;;;;;6.47;4.43;;;;;;;;;;5069543;28;20080;-69
2022/01/07 06:46:52;;;;;;;10.30;6.60;;;;;;;;;;5068674;28;20101;-69
2022/01/07 06:49:18;;;;;;;11.48;7.50;;;;;;;;;;5087881;28;20488;-69
2022/01/07 06:51:44;;;;;;;12.00;7.93;;;;;;;;;;5087912;28;20038;-69
2022/01/07 06:54:11;;;;;;;11.80;7.35;;;;;;;;;;5091011;28;20119;-69
2022/01/07 06:56:43;;;;;;;8.93;5.80;;;;;;;;;;5086497;28;20055;-69
2022/01/07 06:59:12;;;;;;;9.55;7.10;;;;;;;;;;5086907;28;20127;-69
2022/01/07 07:01:38;;;;;;;9.88;6.85;;;;;;;;;;5067770;28;20040;-69
2022/01/07 07:04:04;;;;;;;10.52;6.40;;;3.30;99.90;;;;;;5090707;28;20420;-69
2022/01/07 07:06:29;;;;;;;12.27;7.82;;;3.60;99.90;;;;;;5072833;28;20069;-69
2022/01/07 07:08:55;;;;;;;10.40;7.05;;;3.40;99.90;;;;;;5088438;28;20043;-69
2022/01/07 07:11:21;;;;;;;9.43;5.65;;;3.40;99.90;;;;;;5088834;28;20497;-69
2022/01/07 07:13:49;;;;;;;11.38;7.30;;;3.40;99.90;;;;;;5108257;28;20395;-69
2022/01/07 07:16:15;;;;;;;12.20;7.05;;;3.40;99.90;;;;;;5092277;28;20058;-69
2022/01/07 07:18:41;;;;;;;10.20;6.93;;;3.40;99.90;;;;;;5089488;28;20051;-69
2022/01/07 07:21:07;;;;;;;11.93;8.02;;;3.70;99.90;;;;;;5089960;28;20702;-69
2022/01/07 07:23:33;;;;;;;10.60;7.82;;;3.50;99.90;;;;;;5074347;28;20105;-68
2022/01/07 07:25:58;;;;;;;11.65;6.25;;;3.40;99.90;;;;;;5092334;28;20036;-68
2022/01/07 07:28:24;;;;;;;11.80;6.93;;;3.10;99.90;;;;;;5073237;28;20149;-68
2022/01/07 07:30:53;;;;;;;10.35;7.32;;;3.30;99.90;;;;;;5052069;28;20394;-68
2022/01/07 07:38:38;;;;;;;12.05;7.82;;;3.20;99.90;;;;;;5091375;28;20070;-68
2022/01/07 07:41:06;;;;;;;11.57;8.63;;;3.40;99.90;;;;;;5087596;28;20065;-68
2022/01/07 07:43:32;;;;;;;11.07;8.15;;;3.40;99.90;;;;;;5086191;28;20066;-68
2022/01/07 07:45:58;;;;;;;11.00;8.40;;;3.60;99.90;;;;;;5087721;28;20052;-68
2022/01/07 07:48:24;;;;;;;12.40;9.07;;;4.10;99.90;;;;;;5087206;28;20096;-68
2022/01/07 07:50:50;;;;;;;16.70;8.80;;;3.60;99.90;;;;;;5090585;28;20039;-68
2022/01/07 07:53:16;;;;;;;17.88;10.68;;;3.50;99.90;;;;;;5088666;28;20513;-68
2022/01/07 07:55:43;;;;;;;13.55;9.88;;;3.60;99.90;;;;;;5088558;28;20067;-68
2022/01/07 07:58:09;;;;;;;15.52;9.73;;;3.40;99.90;;;;;;5100904;28;20039;-68
2022/01/07 08:00:35;;;;;;;11.32;8.55;;;3.40;99.90;;;;;;5086982;28;20047;-68
2022/01/07 08:03:01;;;;;;;16.67;10.40;;;3.50;99.90;;;;;;5087714;28;20032;-68
2022/01/07 08:05:27;;;;;;;15.63;10.32;;;3.60;99.90;;;;;;5085487;28;20119;-68
2022/01/07 08:07:52;;;;;;;16.50;10.27;;;3.60;99.90;;;;;;5086714;28;20141;-68
2022/01/07 08:10:23;;;;;;;15.15;10.65;;;3.60;99.90;;;;;;5088354;28;20031;-68
2022/01/07 08:18:22;;;;;;;18.30;11.40;;;3.70;99.90;;;;;;5089394;28;20043;-68
2022/01/07 08:20:48;;;;;;;17.42;11.68;;;3.60;99.90;;;;;;5087309;28;20115;-68
2022/01/07 08:23:14;;;;;;;17.17;12.63;;;3.70;99.90;;;;;;5071558;28;20036;-68
2022/01/07 08:25:40;;;;;;;15.43;10.80;;;3.70;99.90;;;;;;5089111;28;20383;-68
2022/01/07 08:28:06;;;;;;;17.23;11.43;;;3.50;99.90;;;;;;5073396;28;20523;-68
2022/01/07 08:30:37;;;;;;;22.98;11.07;;;3.60;99.90;;;;;;5084749;28;20043;-68
2022/01/07 08:35:50;;;;;;;22.17;14.18;;;3.80;99.90;;;;;;5101687;28;20046;-69
2022/01/07 08:38:16;;;;;;;17.65;12.82;;;3.90;99.90;;;;;;5086182;28;20843;-68
2022/01/07 08:40:42;;;;;;;19.38;12.73;;;3.80;99.90;;;;;;5091891;28;20046;-69
2022/01/07 08:43:08;;;;;;;18.90;12.27;;;3.70;99.90;;;;;;5087713;28;20028;-69
2022/01/07 08:45:34;;;;;;;19.85;13.40;;;3.80;99.90;;;;;;5087416;28;20077;-68
2022/01/07 08:48:00;;;;;;;24.20;14.80;;;4.40;99.90;;;;;;5088626;28;20043;-68
2022/01/07 08:50:26;;;;;;;20.17;13.15;;;;;;;;;;5068867;28;20047;-68
2022/01/07 08:52:55;;;;;;;21.73;13.50;;;;;;;;;;5087530;28;20116;-69
2022/01/07 08:55:21;;;;;;;20.42;12.88;;;4.10;99.90;;;;;;5084809;28;20048;-68
2022/01/07 08:57:46;;;;;;;18.73;14.50;;;4.20;99.90;;;;;;5085901;28;20036;-69
2022/01/07 09:00:14;;;;;;;23.48;14.80;;;4.30;99.90;;;;;;5086884;28;20042;-69
2022/01/07 09:02:40;;;;;;;22.05;10.85;;;4.10;99.90;;;;;;5081442;28;20043;-68
2022/01/07 09:05:06;;;;;;;23.83;14.23;;;4.00;99.90;;;;;;5088232;28;20388;-69
2022/01/07 09:07:33;;;;;;;24.92;15.40;;;;;;;;;;5089246;28;20122;-68
2022/01/07 09:09:59;;;;;;;21.50;14.45;;;4.30;99.90;;;;;;5085103;28;20119;-68
2022/01/07 09:12:25;;;;;;;24.95;15.18;;;4.20;99.90;;;;;;5082512;28;20118;-68
2022/01/07 09:14:51;;;;;;;23.52;14.32;;;4.90;99.90;;;;;;5086563;28;20067;-68
2022/01/07 09:17:16;;;;;;;22.63;15.73;;;4.30;99.90;;;;;;5084394;28;20080;-68
2022/01/07 09:19:42;;;;;;;24.27;14.02;;;4.30;99.90;;;;;;5078935;28;20074;-68
2022/01/07 09:22:08;;;;;;;23.83;15.65;;;;;;;;;;5068618;28;20047;-68
2022/01/07 09:24:34;;;;;;;25.67;16.80;;;4.30;99.90;;;;;;5068504;28;20028;-68
2022/01/07 09:27:00;;;;;;;22.40;14.57;;;4.30;99.90;;;;;;5073716;28;20040;-68
2022/01/07 09:29:27;;;;;;;23.08;14.18;;;4.40;99.90;;;;;;5086560;28;20038;-68
2022/01/07 09:31:54;;;;;;;26.08;16.02;;;5.00;99.90;;;;;;5052869;28;20047;-68
2022/01/07 09:34:20;;;;;;;25.20;17.02;;;4.40;99.90;;;;;;5067624;28;20043;-68
2022/01/07 09:36:46;;;;;;;28.40;16.13;;;4.50;99.90;;;;;;5085124;28;20047;-68
2022/01/07 09:39:12;;;;;;;23.15;15.38;;;4.50;99.90;;;;;;5104577;28;20039;-68
2022/01/07 09:41:39;;;;;;;25.00;15.82;;;4.50;99.90;;;;;;5083393;28;20042;-68
2022/01/07 09:44:12;;;;;;;22.17;14.32;;;4.50;99.90;;;;;;5088164;28;20147;-68
2022/01/07 09:46:39;;;;;;;25.20;14.90;;;4.60;99.90;;;;;;5085382;28;20058;-68
2022/01/07 09:49:06;;;;;;;24.35;15.85;;;4.70;99.90;;;;;;5092691;28;20364;-68
2022/01/07 09:51:31;;;;;;;23.38;15.75;;;4.70;99.90;;;;;;5090692;28;20039;-68
2022/01/07 09:54:01;;;;;;;23.98;14.98;;;4.70;99.90;;;;;;5090242;28;20047;-68
2022/01/07 09:56:27;;;;;;;29.38;15.05;;;4.80;99.90;;;;;;5090598;28;20074;-68
2022/01/07 09:58:52;;;;;;;23.00;15.02;;;4.80;99.90;;;;;;5075744;28;20089;-68
2022/01/07 10:01:20;;;;;;;25.90;15.00;;;4.80;99.90;;;;;;5086167;28;20039;-68
2022/01/07 10:03:46;;;;;;;26.40;15.85;;;4.80;99.90;;;;;;5087484;28;20050;-68
2022/01/07 10:06:38;;;;;;;23.13;13.88;;;4.90;99.90;;;;;;5083846;28;20448;-68
2022/01/07 10:09:11;;;;;;;29.20;17.00;;;4.80;99.90;;;;;;5106600;27;20146;-68
2022/01/07 10:11:38;;;;;;;22.73;15.45;;;4.80;99.90;;;;;;5091346;28;20101;-68
2022/01/07 10:14:22;;;;;;;23.90;11.50;;;4.80;99.90;;;;;;5092846;28;20076;-68
2022/01/07 10:16:51;;;;;;;26.08;15.32;;;4.80;99.90;;;;;;5092095;28;20052;-68
2022/01/07 10:19:43;;;;;;;23.27;14.23;;;4.80;99.90;;;;;;5090042;28;20032;-68
2022/01/07 10:22:13;;;;;;;24.08;16.08;;;4.80;99.90;;;;;;5093260;28;20036;-68
2022/01/07 10:24:57;;;;;;;23.52;14.30;;;4.80;99.90;;;;;;5085992;28;20034;-68
2022/01/07 10:27:35;;;;;;;24.05;14.13;;;4.80;99.90;;;;;;5102263;28;20040;-67
2022/01/07 10:30:10;;;;;;;20.23;14.52;;;5.10;99.90;;;;;;5092849;28;20043;-67
2022/01/07 10:32:37;;;;;;;16.98;9.60;;;4.70;99.90;;;;;;5091685;28;20059;-68
2022/01/07 10:35:08;;;;;;;16.92;9.95;;;4.80;99.90;;;;;;5089226;28;20052;-68
2022/01/07 10:37:55;;;;;;;13.55;8.43;;;4.90;99.90;;;;;;5086663;28;20144;-68
2022/01/07 10:40:36;;;;;;;17.33;9.38;;;5.00;99.90;;;;;;5069700;28;20127;-68
2022/01/07 10:43:22;;;;;;;13.02;7.32;;;5.00;99.90;;;;;;5084759;28;20446;-68
2022/01/07 10:45:56;;;;;;;10.15;6.38;;;4.90;99.90;;;;;;5084908;28;20280;-68
2022/01/07 10:48:34;;;;;;;9.27;6.55;;;4.90;99.90;;;;;;5102346;27;20122;-68
2022/01/07 10:51:09;;;;;;;8.20;5.22;;;4.80;99.90;;;;;;5090049;28;20044;-68
2022/01/07 10:53:35;;;;;;;8.20;5.35;;;4.80;99.90;;;;;;5089236;28;20054;-68
2022/01/07 10:56:14;;;;;;;7.65;5.20;;;4.70;99.90;;;;;;5083902;28;20082;-68
2022/01/07 10:58:43;;;;;;;11.95;5.55;;;4.70;99.90;;;;;;5098671;28;21459;-67
2022/01/07 11:01:21;;;;;;;10.30;6.35;;;4.60;99.90;;;;;;5082395;28;20048;-67
2022/01/07 11:03:47;;;;;;;11.90;6.15;;;4.60;99.90;;;;;;5079331;28;20036;-67
2022/01/07 11:06:13;;;;;;;13.20;8.02;;;4.50;99.90;;;;;;5083522;28;20039;-67
2022/01/07 11:08:40;;;;;;;11.00;7.85;;;4.60;99.90;;;;;;5084999;28;20051;-68
2022/01/07 11:11:08;;;;;;;13.95;7.53;;;4.70;99.90;;;;;;5087926;28;20040;-69
2022/01/07 11:13:35;;;;;;;11.80;8.07;;;4.70;99.90;;;;;;5070103;28;20146;-69
2022/01/07 11:16:03;;;;;;;15.68;8.57;;;4.80;99.90;;;;;;5087919;28;20043;-69
2022/01/07 11:18:29;;;;;;;12.88;8.20;;;4.80;99.90;;;;;;5085631;28;20054;-68
2022/01/07 11:20:58;;;;;;;12.63;7.43;;;4.90;99.90;;;;;;5087157;28;20039;-68
2022/01/07 11:23:31;;;;;;;13.43;7.43;;;5.10;99.90;;;;;;5090461;28;20044;-69
2022/01/07 11:26:08;;;;;;;11.25;7.40;;;5.50;99.90;;;;;;5086401;28;20145;-69
2022/01/07 11:28:35;;;;;;;14.85;8.80;;;5.30;99.90;;;;;;5085749;28;20392;-68
2022/01/07 11:31:12;;;;;;;12.35;7.80;;;5.40;99.90;;;;;;5087504;28;20403;-69
2022/01/07 11:33:38;;;;;;;16.98;9.25;;;5.50;99.90;;;;;;5094474;28;20054;-68
2022/01/07 11:36:09;;;;;;;19.63;8.73;;;5.70;99.90;;;;;;5093212;28;20035;-68
2022/01/07 11:38:42;;;;;;;14.27;7.93;;;5.90;99.90;;;;;;5087277;28;20036;-68
2022/01/07 11:41:14;;;;;;;14.65;7.95;;;5.90;99.90;;;;;;5087633;28;20047;-69
2022/01/07 11:43:46;;;;;;;12.07;7.55;;;5.90;99.90;;;;;;5091163;28;20043;-69
2022/01/07 11:46:29;;;;;;;16.75;8.95;;;5.80;99.90;;;;;;5083767;28;20514;-68
2022/01/07 11:48:56;;;;;;;11.80;8.57;;;5.70;99.90;;;;;;5089143;28;20059;-68
2022/01/07 11:51:23;;;;;;;15.68;8.73;;;5.70;99.90;;;;;;5102049;28;20479;-68
2022/01/07 11:53:48;;;;;;;14.35;8.65;;;6.10;99.90;;;;;;5091027;28;20035;-67
2022/01/07 11:56:15;;;;;;;14.02;9.50;;;5.50;99.90;;;;;;5101089;28;20046;-68
2022/01/07 11:58:47;;;;;;;17.33;9.90;;;5.50;99.90;;;;;;5108699;28;21176;-68
2022/01/07 12:01:35;;;;;;;14.68;10.32;;;5.40;99.90;;;;;;5104600;28;20040;-68
2022/01/07 12:04:27;;;;;;;19.77;11.27;;;5.40;99.90;;;;;;5085761;28;20112;-68
2022/01/07 12:06:59;;;;;;;21.48;10.43;;;5.40;99.90;;;;;;5082317;28;20039;-68
2022/01/07 12:09:36;;;;;;;10.20;7.47;;;5.80;99.90;;;;;;5081053;28;20059;-68
2022/01/07 12:12:06;;;;;;;22.38;10.35;;;5.20;99.90;;;;;;5079948;28;20546;-68
2022/01/07 12:14:34;;;;;;;16.42;10.80;;;5.20;99.90;;;;;;5080803;28;20040;-68
2022/01/07 12:17:01;;;;;;;18.23;9.85;;;5.20;99.90;;;;;;5104423;28;20043;-68
2022/01/07 12:19:36;;;;;;;15.13;10.32;;;5.20;99.90;;;;;;5082569;28;20054;-68
2022/01/07 12:22:06;;;;;;;18.10;10.30;;;5.20;99.90;;;;;;5081492;28;20066;-68
2022/01/07 12:24:32;;;;;;;16.25;10.45;;;5.20;99.90;;;;;;5083538;28;21721;-68
2022/01/07 12:27:06;;;;;;;12.90;9.60;;;5.30;99.90;;;;;;5079893;28;20048;-68
2022/01/07 12:29:34;;;;;;;19.27;9.55;;;5.40;99.90;;;;;;5081876;28;20396;-68
2022/01/07 12:32:02;;;;;;;15.30;8.35;;;5.50;99.90;;;;;;5082602;28;20096;-68
2022/01/07 12:34:34;;;;;;;15.05;8.02;;;5.70;99.90;;;;;;5076894;28;20048;-68
2022/01/07 12:37:12;;;;;;;12.30;6.85;;;5.70;99.90;;;;;;5088909;28;20082;-68
2022/01/07 12:39:43;;;;;;;11.02;6.97;;;5.70;99.90;;;;;;5085859;28;20112;-69
2022/01/07 12:42:10;;;;;;;9.63;6.10;;;5.70;99.90;;;;;;5084625;28;20048;-68
2022/01/07 12:44:50;;;;;;;8.90;5.40;;;5.70;99.90;;;;;;5091615;28;20115;-69
2022/01/07 12:47:17;;;;;;;10.57;4.28;;;5.60;99.90;;;;;;5072957;28;20047;-68
2022/01/07 12:49:51;;;;;;;7.82;3.53;;;5.70;99.90;;;;;;5089860;28;20035;-68
2022/01/07 12:52:25;;;;;;;7.13;3.15;;;5.50;99.90;;;;;;5087214;28;20040;-69
2022/01/07 12:55:02;;;;;;;7.57;3.20;;;5.60;99.90;;;;;;5090384;28;20054;-68
2022/01/07 12:57:46;;;;;;;4.93;1.80;;;5.50;99.90;;;;;;5085103;28;20043;-69
2022/01/07 13:00:34;;;;;;;9.55;2.25;;;5.40;99.90;;;;;;5081221;28;20118;-69
2022/01/07 13:03:06;;;;;;;6.97;1.67;;;5.50;99.90;;;;;;5088387;28;20472;-68
2022/01/07 13:05:35;;;;;;;9.55;1.77;;;5.60;99.90;;;;;;5070359;28;20042;-69
2022/01/07 13:08:11;;;;;;;6.10;1.80;;;5.60;99.90;;;;;;5090155;28;20047;-69
2022/01/07 13:10:39;;;;;;;4.68;1.88;;;5.60;99.90;;;;;;5086765;28;20407;-69